createdAt,value
2022-08-02T00:00:35.120Z,95324.59
2022-08-02T00:03:04.552Z,95332.13
2022-08-02T00:05:32.508Z,95331.16
2022-08-02T00:08:00.543Z,95325.09
2022-08-02T00:10:28.994Z,95323.91
2022-08-02T00:12:58.846Z,95336.16
2022-08-02T00:15:27.251Z,95331.66
2022-08-02T00:17:55.302Z,95332.22
2022-08-02T00:20:24.753Z,95337.47
2022-08-02T00:22:52.780Z,95338.56
2022-08-02T00:25:20.881Z,95331.66
2022-08-02T00:27:48.824Z,95333.09
2022-08-02T00:30:16.869Z,95340.72
2022-08-02T00:32:44.860Z,95338.97
2022-08-02T00:35:12.809Z,95339.28
2022-08-02T00:37:42.964Z,95338.78
2022-08-02T00:40:11.829Z,95332.34
2022-08-02T00:42:40.118Z,95338.19
2022-08-02T00:45:09.472Z,95342.53
2022-08-02T00:47:37.667Z,95338.00
2022-08-02T00:50:06.650Z,95326.53
2022-08-02T00:52:34.670Z,95334.84
2022-08-02T00:55:04.230Z,95329.91
2022-08-02T00:57:32.218Z,95327.34
2022-08-02T01:00:00.218Z,95336.44
2022-08-02T01:02:28.229Z,95333.19
2022-08-02T01:04:56.170Z,95324.81
2022-08-02T01:07:24.130Z,95323.84
2022-08-02T01:09:52.106Z,95331.31
2022-08-02T01:12:21.810Z,95333.41
2022-08-02T01:14:52.380Z,95332.94
2022-08-02T01:17:29.498Z,95335.09
2022-08-02T01:20:06.153Z,95342.59
2022-08-02T01:23:01.613Z,95340.06
2022-08-02T01:25:51.621Z,95333.38
2022-08-02T01:28:37.703Z,95329.59
2022-08-02T01:31:12.073Z,95339.28
2022-08-02T01:33:46.512Z,95341.25
2022-08-02T01:36:18.827Z,95339.09
2022-08-02T01:38:50.598Z,95340.41
2022-08-02T01:41:21.432Z,95337.50
2022-08-02T01:43:54.859Z,95338.09
2022-08-02T01:46:24.301Z,95339.66
2022-08-02T01:48:54.698Z,95341.84
2022-08-02T01:51:44.075Z,95344.22
2022-08-02T01:54:15.852Z,95340.66
2022-08-02T01:56:45.619Z,95338.50
2022-08-02T01:59:19.806Z,95341.63
2022-08-02T02:01:50.811Z,95335.53
2022-08-02T02:04:22.029Z,95335.53
2022-08-02T02:06:51.012Z,95328.84
2022-08-02T02:09:20.228Z,95326.97
2022-08-02T02:12:12.001Z,95325.09
2022-08-02T02:14:40.040Z,95320.94
2022-08-02T02:17:09.292Z,95320.06
2022-08-02T02:20:00.115Z,95316.41
2022-08-02T02:22:28.265Z,95317.00
2022-08-02T02:24:56.407Z,95314.34
2022-08-02T02:27:24.989Z,95315.41
2022-08-02T02:29:55.656Z,95310.09
2022-08-02T02:32:28.828Z,95307.91
2022-08-02T02:34:57.394Z,95311.88
2022-08-02T02:37:29.155Z,95306.34
2022-08-02T02:39:59.287Z,95304.78
2022-08-02T02:42:30.312Z,95305.34
2022-08-02T02:45:01.153Z,95301.50
2022-08-02T02:47:41.115Z,95301.41
2022-08-02T02:50:10.980Z,95300.88
2022-08-02T02:52:40.823Z,95308.31
2022-08-02T02:55:10.694Z,95306.72
2022-08-02T02:57:40.115Z,95303.78
2022-08-02T03:00:13.161Z,95300.88
2022-08-02T03:02:43.552Z,95315.81
2022-08-02T03:05:13.057Z,95312.22
2022-08-02T03:07:41.309Z,95308.41
2022-08-02T03:10:10.814Z,95312.16
2022-08-02T03:12:39.674Z,95311.56
2022-08-02T03:15:11.528Z,95304.66
2022-08-02T03:17:41.170Z,95308.41
2022-08-02T03:20:12.003Z,95304.66
2022-08-02T03:22:40.045Z,95307.59
2022-08-02T03:25:09.614Z,95308.41
2022-08-02T03:27:37.947Z,95311.34
2022-08-02T03:30:08.307Z,95309.69
2022-08-02T03:32:40.073Z,95300.31
2022-08-02T03:35:10.447Z,95313.13
2022-08-02T03:37:39.401Z,95306.38
2022-08-02T03:40:10.391Z,95309.31
2022-08-02T03:42:40.180Z,95316.34
2022-08-02T03:45:11.512Z,95310.47
2022-08-02T03:47:41.719Z,95307.25
2022-08-02T03:50:13.342Z,95309.31
2022-08-02T03:52:43.512Z,95309.72
2022-08-02T03:55:13.723Z,95313.66
2022-08-02T03:57:43.199Z,95304.03
2022-08-02T04:00:13.545Z,95303.47
2022-08-02T04:02:43.202Z,95304.44
2022-08-02T04:05:11.970Z,95306.03
2022-08-02T04:08:33.250Z,95300.50
2022-08-02T04:10:28.167Z,95312.47
2022-08-02T04:12:56.677Z,95307.19
2022-08-02T04:15:25.527Z,95305.00
2022-08-02T04:17:57.848Z,95304.59
2022-08-02T04:20:29.663Z,95309.53
2022-08-02T04:23:01.824Z,95312.78
2022-08-02T04:25:35.696Z,95311.53
2022-08-02T04:28:16.931Z,95310.47
2022-08-02T04:30:47.609Z,95309.66
2022-08-02T04:33:17.779Z,95309.66
2022-08-02T04:35:46.519Z,95304.16
2022-08-02T04:38:16.096Z,95310.41
2022-08-02T04:40:52.351Z,95312.91
2022-08-02T04:43:20.904Z,95314.50
2022-08-02T04:45:50.726Z,95318.34
2022-08-02T04:48:20.448Z,95315.50
2022-08-02T04:50:48.417Z,95314.66
2022-08-02T04:53:17.036Z,95314.81
2022-08-02T04:55:45.010Z,95327.13
2022-08-02T04:58:38.886Z,95321.91
2022-08-02T05:01:01.182Z,95320.94
2022-08-02T05:03:30.587Z,95315.00
2022-08-02T05:05:58.543Z,95328.81
2022-08-02T05:08:26.499Z,95329.31
2022-08-02T05:10:54.504Z,95331.91
2022-08-02T05:13:22.467Z,95329.75
2022-08-02T05:15:50.991Z,95334.47
2022-08-02T05:18:19.210Z,95340.78
2022-08-02T05:20:48.526Z,95337.06
2022-08-02T05:23:16.614Z,95339.66
2022-08-02T05:25:44.544Z,95336.91
2022-08-02T05:28:12.554Z,95340.06
2022-08-02T05:30:41.485Z,95341.66
2022-08-02T05:33:09.677Z,95335.25
2022-08-02T05:35:37.693Z,95333.00
2022-08-02T05:38:10.094Z,95338.59
2022-08-02T05:40:54.263Z,95338.31
2022-08-02T05:43:24.077Z,95340.41
2022-08-02T05:45:53.710Z,95345.66
2022-08-02T05:48:25.421Z,95345.06
2022-08-02T05:51:04.737Z,95346.66
2022-08-02T05:53:40.389Z,95347.63
2022-08-02T05:56:19.454Z,95350.19
2022-08-02T05:58:54.306Z,95352.81
2022-08-02T06:01:29.546Z,95354.81
2022-08-02T06:04:00.682Z,95355.63
2022-08-02T06:06:31.120Z,95348.16
2022-08-02T06:09:06.788Z,95350.31
2022-08-02T06:11:38.194Z,95347.06
2022-08-02T06:14:07.802Z,95342.81
2022-08-02T06:16:42.238Z,95346.13
2022-08-02T06:19:10.613Z,95349.72
2022-08-02T06:22:32.483Z,95341.81
2022-08-02T06:24:34.414Z,95336.13
2022-08-02T06:27:03.749Z,95341.84
2022-08-02T06:29:38.483Z,95347.56
2022-08-02T06:32:09.029Z,95342.72
2022-08-02T06:34:41.036Z,95346.41
2022-08-02T06:37:20.218Z,95340.00
2022-08-02T06:39:53.092Z,95344.22
2022-08-02T06:42:27.234Z,95335.53
2022-08-02T06:44:58.234Z,95335.34
2022-08-02T06:47:27.340Z,95336.34
2022-08-02T06:49:57.130Z,95336.34
2022-08-02T06:52:29.609Z,95333.97
2022-08-02T06:55:00.825Z,95320.97
2022-08-02T06:57:29.866Z,95333.94
2022-08-02T06:59:58.415Z,95334.16
2022-08-02T07:02:26.805Z,95326.94
2022-08-02T07:04:55.869Z,95326.66
2022-08-02T07:07:24.103Z,95330.00
2022-08-02T07:09:57.265Z,95326.91
2022-08-02T07:12:31.853Z,95324.22
2022-08-02T07:15:00.417Z,95327.13
2022-08-02T07:17:28.616Z,95321.19
2022-08-02T07:19:56.750Z,95318.19
2022-08-02T07:22:27.032Z,95317.22
2022-08-02T07:24:56.271Z,95313.56
2022-08-02T07:27:24.885Z,95319.03
2022-08-02T07:29:54.793Z,95316.56
2022-08-02T07:32:26.489Z,95309.66
2022-08-02T07:34:55.780Z,95315.13
2022-08-02T07:37:54.296Z,95317.81
2022-08-02T07:40:20.097Z,95309.56
2022-08-02T07:42:49.777Z,95311.28
2022-08-02T07:45:19.669Z,95316.22
2022-08-02T07:47:47.799Z,95304.25
2022-08-02T07:50:17.569Z,95294.91
2022-08-02T07:52:46.823Z,95299.78
2022-08-02T07:55:17.869Z,95293.19
2022-08-02T07:57:47.129Z,95286.63
2022-08-02T08:00:17.460Z,95292.63
2022-08-02T08:02:48.200Z,95283.97
2022-08-02T08:05:16.578Z,95277.78
2022-08-02T08:07:44.557Z,95274.34
2022-08-02T08:10:12.742Z,95274.28
2022-08-02T08:12:40.815Z,95269.41
2022-08-02T08:15:09.814Z,95273.50
2022-08-02T08:17:38.624Z,95261.25
2022-08-02T08:20:11.748Z,95263.19
2022-08-02T08:22:42.068Z,95271.97
2022-08-02T08:25:10.442Z,95263.47
2022-08-02T08:27:38.450Z,95262.22
2022-08-02T08:30:08.065Z,95269.13
2022-08-02T08:32:36.135Z,95261.59
2022-08-02T08:35:06.938Z,95262.22
2022-08-02T08:37:36.736Z,95257.00
2022-08-02T08:40:05.927Z,95266.56
2022-08-02T08:42:34.600Z,95260.03
2022-08-02T08:45:03.317Z,95259.38
2022-08-02T08:47:35.755Z,95263.34
2022-08-02T08:50:06.609Z,95259.06
2022-08-02T08:52:44.564Z,95257.34
2022-08-02T08:55:13.004Z,95258.75
2022-08-02T08:57:43.109Z,95253.03
2022-08-02T09:00:13.501Z,95256.50
2022-08-02T09:02:42.812Z,95259.66
2022-08-02T09:05:12.295Z,95256.13
2022-08-02T09:07:44.738Z,95261.56
2022-08-02T09:10:36.191Z,95270.25
2022-08-02T09:13:37.859Z,95268.97
2022-08-02T09:16:13.071Z,95267.69
2022-08-02T09:18:44.913Z,95268.03
2022-08-02T09:21:14.781Z,95265.19
2022-08-02T09:23:46.169Z,95269.53
2022-08-02T09:26:15.241Z,95263.59
2022-08-02T09:28:44.761Z,95261.00
2022-08-02T09:31:14.639Z,95261.19
2022-08-02T09:33:44.124Z,95262.03
2022-08-02T09:36:14.032Z,95256.84
2022-08-02T09:38:52.716Z,95254.72
2022-08-02T09:41:26.267Z,95258.38
2022-08-02T09:44:04.326Z,95256.75
2022-08-02T09:46:38.449Z,95255.22
2022-08-02T09:49:09.411Z,95257.59
2022-08-02T09:51:39.284Z,95249.31
2022-08-02T09:54:09.443Z,95246.06
2022-08-02T09:56:50.211Z,95255.47
2022-08-02T09:59:20.142Z,95242.13
2022-08-02T10:02:14.672Z,95248.81
2022-08-02T10:04:53.036Z,95250.94
2022-08-02T10:07:22.945Z,95245.41
2022-08-02T10:09:51.868Z,95238.00
2022-08-02T10:12:22.437Z,95243.75
2022-08-02T10:14:52.529Z,95234.88
2022-08-02T10:17:21.346Z,95230.59
2022-08-02T10:20:02.999Z,95232.16
2022-08-02T10:22:33.392Z,95235.44
2022-08-02T10:25:04.148Z,95234.13
2022-08-02T10:27:55.532Z,95223.03
2022-08-02T10:30:24.566Z,95225.03
2022-08-02T10:32:55.038Z,95225.53
2022-08-02T10:35:26.708Z,95218.03
2022-08-02T10:38:01.514Z,95212.22
2022-08-02T10:40:44.737Z,95214.56
2022-08-02T10:43:15.067Z,95213.00
2022-08-02T10:45:44.182Z,95214.47
2022-08-02T10:48:15.489Z,95214.13
2022-08-02T10:50:56.447Z,95210.97
2022-08-02T10:53:26.237Z,95213.22
2022-08-02T10:55:55.235Z,95208.53
2022-08-02T10:58:29.296Z,95216.25
2022-08-02T11:00:59.077Z,95199.59
2022-08-02T11:03:41.320Z,95204.28
2022-08-02T11:06:25.098Z,95191.53
2022-08-02T11:09:31.955Z,95196.22
2022-08-02T11:12:03.903Z,95184.91
2022-08-02T11:14:35.164Z,95189.03
2022-08-02T11:17:16.959Z,95200.91
2022-08-02T11:20:17.589Z,95189.25
2022-08-02T11:22:47.067Z,95183.88
2022-08-02T11:26:02.162Z,95183.22
2022-08-02T11:28:26.111Z,95176.94
2022-08-02T11:31:03.086Z,95167.94
2022-08-02T11:33:36.901Z,95166.84
2022-08-02T11:36:07.448Z,95165.28
2022-08-02T11:38:35.721Z,95159.03
2022-08-02T11:41:06.441Z,95167.06
2022-08-02T11:43:38.688Z,95164.91
2022-08-02T11:46:14.363Z,95171.19
2022-08-02T11:48:44.002Z,95161.22
2022-08-02T11:51:14.691Z,95158.50
2022-08-02T11:53:45.981Z,95158.72
2022-08-02T11:56:24.829Z,95154.41
2022-08-02T11:59:07.528Z,95165.19
2022-08-02T12:01:45.832Z,95159.31
2022-08-02T12:04:19.275Z,95153.63
2022-08-02T12:06:58.772Z,95173.66
2022-08-02T12:09:28.771Z,95167.06
2022-08-02T12:11:57.584Z,95164.81
2022-08-02T12:14:27.677Z,95159.41
2022-08-02T12:17:15.038Z,95167.94
2022-08-02T12:19:44.089Z,95159.75
2022-08-02T12:22:18.549Z,95162.16
2022-08-02T12:24:49.028Z,95166.28
2022-08-02T12:27:31.473Z,95166.66
2022-08-02T12:30:01.833Z,95174.44
2022-08-02T12:32:31.779Z,95156.19
2022-08-02T12:35:08.304Z,95160.28
2022-08-02T12:37:37.335Z,95154.56
2022-08-02T12:40:25.408Z,95155.44
2022-08-02T12:42:56.963Z,95164.00
2022-08-02T12:45:25.484Z,95156.34
2022-08-02T12:47:56.793Z,95159.72
2022-08-02T12:50:27.664Z,95160.56
2022-08-02T12:53:05.606Z,95156.13
2022-08-02T12:56:01.875Z,95164.31
2022-08-02T12:58:26.650Z,95162.75
2022-08-02T13:00:57.378Z,95171.28
2022-08-02T13:04:10.373Z,95159.16
2022-08-02T13:06:41.120Z,95157.91
2022-08-02T13:09:03.465Z,95150.25
2022-08-02T13:11:31.549Z,95145.91
2022-08-02T13:13:59.520Z,95148.59
2022-08-02T13:16:30.771Z,95157.34
2022-08-02T13:19:01.241Z,95148.75
2022-08-02T13:21:40.609Z,95149.44
2022-08-02T13:24:33.091Z,95138.50
2022-08-02T13:27:08.043Z,95136.53
2022-08-02T13:29:37.245Z,95142.00
2022-08-02T13:32:05.479Z,95138.38
2022-08-02T13:34:34.842Z,95126.91
2022-08-02T13:37:03.284Z,95143.50
2022-08-02T13:39:31.308Z,95130.41
2022-08-02T13:41:59.350Z,95127.88
2022-08-02T13:44:27.279Z,95147.47
2022-08-02T13:46:55.309Z,95125.59
2022-08-02T13:49:51.198Z,95134.38
2022-08-02T13:52:13.660Z,95127.28
2022-08-02T13:54:41.836Z,95119.56
2022-08-02T13:57:09.772Z,95122.78
2022-08-02T13:59:57.624Z,95123.53
2022-08-02T14:02:26.356Z,95118.13
2022-08-02T14:04:54.283Z,95124.25
2022-08-02T14:07:23.731Z,95113.97
2022-08-02T14:09:51.686Z,95114.28
2022-08-02T14:12:20.533Z,95107.25
2022-08-02T14:14:48.556Z,95100.69
2022-08-02T14:17:18.799Z,95108.03
2022-08-02T14:19:47.025Z,95110.50
2022-08-02T14:22:15.019Z,95109.88
2022-08-02T14:24:44.656Z,95116.00
2022-08-02T14:27:13.559Z,95108.81
2022-08-02T14:29:41.557Z,95111.34
2022-08-02T14:32:10.250Z,95103.09
2022-08-02T14:34:38.585Z,95102.28
2022-08-02T14:37:06.595Z,95101.44
2022-08-02T14:39:42.899Z,95116.53
2022-08-02T14:42:23.977Z,95107.25
2022-08-02T14:44:51.960Z,95095.94
2022-08-02T14:47:20.167Z,95095.88
2022-08-02T14:49:50.292Z,95096.41
2022-08-02T14:52:19.028Z,95102.19
2022-08-02T14:54:47.312Z,95081.72
2022-08-02T14:57:15.579Z,95097.97
2022-08-02T14:59:44.981Z,95098.91
2022-08-02T15:02:13.817Z,95102.03
2022-08-02T15:04:43.813Z,95105.69
2022-08-02T15:07:13.211Z,95109.91
2022-08-02T15:09:41.638Z,95106.19
2022-08-02T15:12:10.754Z,95106.81
2022-08-02T15:14:38.877Z,95105.63
2022-08-02T15:17:08.615Z,95105.66
2022-08-02T15:19:58.841Z,95098.88
2022-08-02T15:22:24.750Z,95102.59
2022-08-02T15:24:53.135Z,95099.47
2022-08-02T15:27:21.243Z,95099.84
2022-08-02T15:29:49.396Z,95098.38
2022-08-02T15:32:19.832Z,95098.34
2022-08-02T15:34:48.613Z,95099.72
2022-08-02T15:37:16.557Z,95100.22
2022-08-02T15:39:44.869Z,95105.84
2022-08-02T15:42:13.697Z,95088.41
2022-08-02T15:44:41.912Z,95087.56
2022-08-02T15:47:09.960Z,95093.16
2022-08-02T15:49:41.558Z,95086.66
2022-08-02T15:52:10.500Z,95092.56
2022-08-02T15:54:38.796Z,95095.59
2022-08-02T15:57:06.993Z,95091.09
2022-08-02T15:59:35.013Z,95090.31
2022-08-02T16:02:03.374Z,95089.09
2022-08-02T16:04:31.464Z,95082.81
2022-08-02T16:07:01.356Z,95079.38
2022-08-02T16:09:29.763Z,95077.88
2022-08-02T16:11:57.830Z,95082.22
2022-08-02T16:14:25.872Z,95083.56
2022-08-02T16:16:53.889Z,95081.16
2022-08-02T16:19:46.062Z,95075.09
2022-08-02T16:22:13.876Z,95073.03
2022-08-02T16:24:42.180Z,95068.63
2022-08-02T16:27:10.145Z,95067.84
2022-08-02T16:29:38.225Z,95075.09
2022-08-02T16:32:06.918Z,95075.66
2022-08-02T16:34:56.689Z,95070.31
2022-08-02T16:37:24.756Z,95076.06
2022-08-02T16:39:52.759Z,95078.41
2022-08-02T16:42:25.406Z,95074.63
2022-08-02T16:44:54.878Z,95068.84
2022-08-02T16:47:43.557Z,95064.50
2022-08-02T16:50:11.655Z,95074.06
2022-08-02T16:52:41.346Z,95067.91
2022-08-02T16:55:11.285Z,95071.00
2022-08-02T16:57:43.267Z,95080.03
2022-08-02T17:00:15.396Z,95070.34
2022-08-02T17:02:44.439Z,95070.59
2022-08-02T17:05:15.768Z,95062.19
2022-08-02T17:08:08.276Z,95068.19
2022-08-02T17:10:34.634Z,95067.75
2022-08-02T17:13:11.262Z,95067.22
2022-08-02T17:16:17.321Z,95066.50
2022-08-02T17:18:28.898Z,95057.69
2022-08-02T17:20:58.060Z,95063.09
2022-08-02T17:24:03.898Z,95061.28
2022-08-02T17:26:16.147Z,95064.69
2022-08-02T17:29:14.389Z,95070.47
2022-08-02T17:31:37.136Z,95067.41
2022-08-02T17:34:07.445Z,95065.25
2022-08-02T17:36:35.401Z,95070.22
2022-08-02T17:41:53.105Z,95070.72
2022-08-02T17:44:37.262Z,95069.88
2022-08-02T17:47:08.461Z,95076.59
2022-08-02T17:49:44.403Z,95079.34
2022-08-02T17:52:52.468Z,95079.03
2022-08-02T17:55:07.017Z,95084.78
2022-08-02T17:57:56.002Z,95080.31
2022-08-02T18:00:24.565Z,95085.63
2022-08-02T18:02:55.563Z,95075.63
2022-08-02T18:05:39.028Z,95088.72
2022-08-02T18:08:10.011Z,95087.97
2022-08-02T18:10:39.479Z,95078.34
2022-08-02T18:13:07.723Z,95082.53
2022-08-02T18:15:35.857Z,95086.00
2022-08-02T18:18:04.161Z,95085.63
2022-08-02T18:20:32.158Z,95087.19
2022-08-02T18:23:00.412Z,95090.38
2022-08-02T18:25:37.508Z,95081.84
2022-08-02T18:28:15.379Z,95086.44
2022-08-02T18:30:43.604Z,95085.63
2022-08-02T18:33:58.937Z,95083.13
2022-08-02T18:35:59.634Z,95083.69
2022-08-02T18:38:30.476Z,95081.06
2022-08-02T18:41:02.231Z,95077.03
2022-08-02T18:46:21.196Z,95064.22
2022-08-02T18:48:49.190Z,95080.91
2022-08-02T18:51:18.640Z,95064.50
2022-08-02T18:53:48.931Z,95069.44
2022-08-02T18:56:20.026Z,95066.69
2022-08-02T18:59:07.499Z,95066.22
2022-08-02T19:01:45.039Z,95079.84
2022-08-02T19:04:14.717Z,95075.72
2022-08-02T19:06:42.663Z,95068.44
2022-08-02T19:09:14.000Z,95065.16
2022-08-02T19:11:47.235Z,95071.81
2022-08-02T19:14:24.007Z,95072.34
2022-08-02T19:16:57.082Z,95070.34
2022-08-02T19:19:29.214Z,95078.28
2022-08-02T19:22:26.486Z,95078.44
2022-08-02T19:24:47.162Z,95076.78
2022-08-02T19:27:20.710Z,95081.94
2022-08-02T19:29:55.487Z,95080.19
2022-08-02T19:32:40.240Z,95083.66
2022-08-02T19:35:19.686Z,95089.91
2022-08-02T19:37:59.500Z,95085.84
2022-08-02T19:40:28.970Z,95084.22
2022-08-02T19:44:27.557Z,95082.38
2022-08-02T19:45:49.830Z,95090.94
2022-08-02T19:48:24.020Z,95088.25
2022-08-02T19:50:56.816Z,95097.47
2022-08-02T19:53:47.777Z,95095.28
2022-08-02T19:56:25.208Z,95095.97
2022-08-02T19:58:54.880Z,95098.66
2022-08-02T20:01:36.891Z,95098.66
2022-08-02T20:04:07.558Z,95108.31
2022-08-02T20:06:45.403Z,95103.59
2022-08-02T20:09:14.018Z,95100.47
2022-08-02T20:11:45.205Z,95100.47
2022-08-02T20:14:13.836Z,95108.97
2022-08-02T20:16:43.171Z,95102.81
2022-08-02T20:19:14.258Z,95116.97
2022-08-02T20:21:50.523Z,95113.06
2022-08-02T20:24:22.586Z,95109.16
2022-08-02T20:26:54.914Z,95103.00
2022-08-02T20:29:42.750Z,95102.13
2022-08-02T20:32:14.608Z,95108.81
2022-08-02T20:34:42.914Z,95104.13
2022-08-02T20:37:59.455Z,95110.28
2022-08-02T20:40:06.108Z,95105.06
2022-08-02T20:42:35.147Z,95114.94
2022-08-02T20:45:03.115Z,95107.50
2022-08-02T20:47:39.832Z,95109.75
2022-08-02T20:50:30.685Z,95108.88
2022-08-02T20:53:00.386Z,95108.63
2022-08-02T20:55:31.097Z,95109.31
2022-08-02T20:58:01.847Z,95112.00
2022-08-02T21:00:31.880Z,95107.09
2022-08-02T21:03:02.664Z,95111.53
2022-08-02T21:05:43.657Z,95114.66
2022-08-02T21:08:21.496Z,95106.84
2022-08-02T21:10:52.269Z,95106.84
2022-08-02T21:13:24.090Z,95113.78
2022-08-02T21:15:53.231Z,95115.25
2022-08-02T21:18:30.402Z,95108.63
2022-08-02T21:21:08.792Z,95123.16
2022-08-02T21:23:37.415Z,95108.25
2022-08-02T21:26:06.623Z,95121.78
2022-08-02T21:28:45.004Z,95119.59
2022-08-02T21:31:14.980Z,95120.47
2022-08-02T21:33:56.801Z,95118.31
2022-08-02T21:36:30.663Z,95116.75
2022-08-02T21:39:04.538Z,95119.09
2022-08-02T21:41:39.786Z,95117.53
2022-08-02T21:44:15.907Z,95122.91
2022-08-02T21:46:45.477Z,95117.53
2022-08-02T21:49:16.315Z,95127.38
2022-08-02T21:51:49.234Z,95124.25
2022-08-02T21:54:20.281Z,95120.19
2022-08-02T21:56:52.111Z,95119.06
2022-08-02T21:59:25.664Z,95117.91
2022-08-02T22:01:56.814Z,95119.44
2022-08-02T22:04:27.414Z,95126.59
2022-08-02T22:06:56.002Z,95124.34
2022-08-02T22:09:43.568Z,95125.47
2022-08-02T22:12:17.743Z,95130.28
2022-08-02T22:14:49.404Z,95126.84
2022-08-02T22:17:21.643Z,95141.09
2022-08-02T22:20:12.718Z,95140.03
2022-08-02T22:22:41.996Z,95135.69
2022-08-02T22:25:27.010Z,95137.63
2022-08-02T22:28:35.302Z,95145.72
2022-08-02T22:30:46.733Z,95148.97
2022-08-02T22:33:41.939Z,95151.72
2022-08-02T22:36:15.993Z,95158.19
2022-08-02T22:38:44.824Z,95153.75
2022-08-02T22:41:13.627Z,95160.41
2022-08-02T22:43:42.163Z,95160.06
2022-08-02T22:46:10.514Z,95159.38
2022-08-02T22:48:43.866Z,95161.41
2022-08-02T22:51:12.635Z,95159.50
2022-08-02T22:53:42.920Z,95163.75
2022-08-02T22:56:11.852Z,95165.50
2022-08-02T22:58:49.252Z,95069.84
2022-08-02T22:59:00.260Z,95073.50
2022-08-02T23:01:28.356Z,95165.69
2022-08-02T23:03:56.347Z,95163.34
2022-08-02T23:06:24.295Z,95167.00
2022-08-02T23:08:53.692Z,95168.41
2022-08-02T23:11:23.137Z,95174.28
2022-08-02T23:13:51.147Z,95168.00
2022-08-02T23:16:39.728Z,95167.84
2022-08-02T23:19:25.199Z,95169.16
2022-08-02T23:22:01.661Z,95170.53
2022-08-02T23:24:33.906Z,95169.16
2022-08-02T23:27:02.281Z,95171.19
2022-08-02T23:29:30.296Z,95167.09
2022-08-02T23:31:59.029Z,95167.28
2022-08-02T23:34:27.347Z,95168.38
2022-08-02T23:36:55.323Z,95173.28
2022-08-02T23:39:23.351Z,95171.19
2022-08-02T23:41:55.067Z,95174.69
2022-08-02T23:44:24.166Z,95170.78
2022-08-02T23:46:52.866Z,95171.69
2022-08-02T23:49:21.582Z,95170.91
2022-08-02T23:51:50.019Z,95169.34
2022-08-02T23:54:18.629Z,95170.00
2022-08-02T23:56:46.912Z,95172.50
2022-08-02T23:59:16.631Z,95178.50
